Airfield :
LOGIN :

Register | Disclaimer

   EN    FR    IT 

 










Legend :    VFR   Marginal VFR   IFR   Intensive IFR   Very Intensive IFR
Visi :
Ceiling :
>= 8 km
>= 3000ft
5 to 8 km
1000 to 3000 ft
1500m to 5 km
500 to 1000 ft
800 to 1500m
200 to 500 ft
< 800m
< 200 ft
Symbols :   Thunderstorms  Fog  Heavy snow  Heavy precipitations  Wind > 20 kt
SIGMETs :     Misc.  Thunderstorms  Icing  Turbulence  Mountain Waves  Volcanic Ashes







- Airport Elevation : 74 ft
- IATA code : MRS
- Download approach charts


LFML - Marseille / Marignane

CURRENT METAR :
  • 211500Z AUTO 29015KT CAVOK 31/14 Q1010 TEMPO 27015G25KT

EXPIRED METARs :
  • 211430Z AUTO 28016KT CAVOK 31/14 Q1010 TEMPO 27015G25KT
  • 211400Z AUTO 27015KT CAVOK 30/15 Q1010 TEMPO 27015G25KT
  • 211330Z AUTO 28015KT CAVOK 30/14 Q1010 TEMPO 27015G25KT
  • 211300Z AUTO 29014KT 9999 FEW008 31/16 Q1011 TEMPO 27015G25KT
  • 211230Z AUTO 30011KT CAVOK 30/15 Q1011 TEMPO 27015G25KT
  • 211200Z AUTO 31014KT 290V350 CAVOK 30/15 Q1011 NOSIG

TAF TAF LFML
Valid from the 21 at 15:00 until the 22 at 21:00 UTC


211400Z 2115/2221 30012KT CAVOK TX30/2213Z TN23/2204Z
TEMPO 2115/2120 27015G25KT
TEMPO 2214/2221 26018G28KT
ATIS : +33 4 42 31 15 15
No reported NOTAMs for that airfield.



MET'MAP, your aeronautical weather chart ! - Copyright ORBIFLY December 2007 - Disclaimer

ORBIFLY MET'MAP TEAM :

Programming & Development : Alexandra Zaïnal
Concept & Development : Baudouin d'Aumeries
Co-Development & Prog : Marc-Olivier Méhu
Technical & hardware support : Manuel Goepfert

Contact : metmap@orbifly.com




SOURCES & CREDITS :

   NOAA